sensor_id;sensor_type;location;lat;lon;timestamp;pressure;altitude;pressure_sealevel;temperature;humidity
53262;BME280;39658;51.090;-1.786;2023-07-20T00:01:31;101273.34;;;11.97;100.00
53262;BME280;39658;51.090;-1.786;2023-07-20T00:03:58;101269.38;;;11.90;100.00
53262;BME280;39658;51.090;-1.786;2023-07-20T00:06:25;101273.25;;;11.84;100.00
53262;BME280;39658;51.090;-1.786;2023-07-20T00:08:53;101265.59;;;11.80;100.00
53262;BME280;39658;51.090;-1.786;2023-07-20T00:11:21;101266.91;;;11.73;100.00
53262;BME280;39658;51.090;-1.786;2023-07-20T00:13:48;101269.19;;;11.64;100.00
53262;BME280;39658;51.090;-1.786;2023-07-20T00:16:15;101270.31;;;11.60;100.00
53262;BME280;39658;51.090;-1.786;2023-07-20T00:18:41;101267.13;;;11.55;100.00
53262;BME280;39658;51.090;-1.786;2023-07-20T00:21:08;101269.19;;;11.50;100.00
53262;BME280;39658;51.090;-1.786;2023-07-20T00:23:35;101268.59;;;11.45;100.00
53262;BME280;39658;51.090;-1.786;2023-07-20T00:26:02;101266.16;;;11.42;100.00
53262;BME280;39658;51.090;-1.786;2023-07-20T00:28:30;101273.41;;;11.38;100.00
53262;BME280;39658;51.090;-1.786;2023-07-20T00:30:59;101274.44;;;11.36;100.00
53262;BME280;39658;51.090;-1.786;2023-07-20T00:33:25;101276.53;;;11.30;100.00
53262;BME280;39658;51.090;-1.786;2023-07-20T00:35:52;101274.94;;;11.28;100.00
53262;BME280;39658;51.090;-1.786;2023-07-20T00:38:19;101281.16;;;11.27;100.00
53262;BME280;39658;51.090;-1.786;2023-07-20T00:40:46;101282.00;;;11.27;100.00
53262;BME280;39658;51.090;-1.786;2023-07-20T00:43:13;101284.72;;;11.26;100.00
53262;BME280;39658;51.090;-1.786;2023-07-20T00:45:42;101286.53;;;11.25;100.00
53262;BME280;39658;51.090;-1.786;2023-07-20T00:48:09;101283.13;;;11.23;100.00
53262;BME280;39658;51.090;-1.786;2023-07-20T00:50:37;101285.78;;;11.23;100.00
53262;BME280;39658;51.090;-1.786;2023-07-20T00:53:07;101284.16;;;11.21;100.00
53262;BME280;39658;51.090;-1.786;2023-07-20T00:55:34;101287.81;;;11.18;100.00
53262;BME280;39658;51.090;-1.786;2023-07-20T00:58:01;101283.50;;;11.17;100.00
53262;BME280;39658;51.090;-1.786;2023-07-20T01:00:28;101288.69;;;11.19;100.00
53262;BME280;39658;51.090;-1.786;2023-07-20T01:02:56;101283.50;;;11.17;100.00
53262;BME280;39658;51.090;-1.786;2023-07-20T01:05:28;101287.16;;;11.14;100.00
53262;BME280;39658;51.090;-1.786;2023-07-20T01:08:00;101286.31;;;11.14;100.00
53262;BME280;39658;51.090;-1.786;2023-07-20T01:10:36;101274.22;;;11.10;100.00
53262;BME280;39658;51.090;-1.786;2023-07-20T01:13:06;101277.25;;;11.04;100.00
53262;BME280;39658;51.090;-1.786;2023-07-20T01:15:33;101273.06;;;11.00;100.00
53262;BME280;39658;51.090;-1.786;2023-07-20T01:18:02;101275.03;;;10.96;100.00
53262;BME280;39658;51.090;-1.786;2023-07-20T01:20:31;101277.88;;;10.93;100.00
53262;BME280;39658;51.090;-1.786;2023-07-20T01:23:12;101276.34;;;10.89;100.00
53262;BME280;39658;51.090;-1.786;2023-07-20T01:26:02;101270.59;;;10.82;100.00
53262;BME280;39658;51.090;-1.786;2023-07-20T01:29:06;101273.56;;;10.76;100.00
53262;BME280;39658;51.090;-1.786;2023-07-20T01:31:41;101276.56;;;10.70;100.00
53262;BME280;39658;51.090;-1.786;2023-07-20T01:34:12;101277.50;;;10.69;100.00
53262;BME280;39658;51.090;-1.786;2023-07-20T01:36:43;101273.34;;;10.65;100.00
53262;BME280;39658;51.090;-1.786;2023-07-20T01:39:10;101277.09;;;10.60;100.00
53262;BME280;39658;51.090;-1.786;2023-07-20T01:41:38;101274.53;;;10.59;100.00
53262;BME280;39658;51.090;-1.786;2023-07-20T01:44:05;101273.69;;;10.58;100.00
53262;BME280;39658;51.090;-1.786;2023-07-20T01:46:32;101271.25;;;10.55;100.00
53262;BME280;39658;51.090;-1.786;2023-07-20T01:49:00;101272.09;;;10.56;100.00
53262;BME280;39658;51.090;-1.786;2023-07-20T01:51:27;101275.38;;;10.59;100.00
53262;BME280;39658;51.090;-1.786;2023-07-20T01:53:53;101265.78;;;10.58;100.00
53262;BME280;39658;51.090;-1.786;2023-07-20T01:56:20;101273.88;;;10.55;100.00
53262;BME280;39658;51.090;-1.786;2023-07-20T01:58:47;101270.28;;;10.56;100.00
53262;BME280;39658;51.090;-1.786;2023-07-20T02:01:13;101279.16;;;10.55;100.00
53262;BME280;39658;51.090;-1.786;2023-07-20T02:03:40;101271.59;;;10.49;100.00
53262;BME280;39658;51.090;-1.786;2023-07-20T02:06:08;101268.28;;;10.46;100.00
53262;BME280;39658;51.090;-1.786;2023-07-20T02:08:35;101275.50;;;10.42;100.00
53262;BME280;39658;51.090;-1.786;2023-07-20T02:11:02;101271.44;;;10.36;100.00
53262;BME280;39658;51.090;-1.786;2023-07-20T02:13:29;101270.66;;;10.34;100.00
53262;BME280;39658;51.090;-1.786;2023-07-20T02:15:56;101265.63;;;10.30;100.00
53262;BME280;39658;51.090;-1.786;2023-07-20T02:18:23;101260.69;;;10.23;100.00
53262;BME280;39658;51.090;-1.786;2023-07-20T02:20:52;101259.94;;;10.21;100.00
53262;BME280;39658;51.090;-1.786;2023-07-20T02:23:20;101269.88;;;10.16;100.00
53262;BME280;39658;51.090;-1.786;2023-07-20T02:25:47;101267.44;;;10.13;100.00
53262;BME280;39658;51.090;-1.786;2023-07-20T02:28:14;101265.78;;;10.11;100.00
53262;BME280;39658;51.090;-1.786;2023-07-20T02:30:41;101268.44;;;10.11;100.00
53262;BME280;39658;51.090;-1.786;2023-07-20T02:33:08;101262.31;;;10.10;100.00
53262;BME280;39658;51.090;-1.786;2023-07-20T02:35:35;101267.84;;;10.05;100.00
53262;BME280;39658;51.090;-1.786;2023-07-20T02:38:02;101263.59;;;10.03;100.00
53262;BME280;39658;51.090;-1.786;2023-07-20T02:40:30;101257.72;;;9.98;100.00
53262;BME280;39658;51.090;-1.786;2023-07-20T02:42:56;101259.56;;;9.96;100.00
53262;BME280;39658;51.090;-1.786;2023-07-20T02:45:23;101260.63;;;9.93;100.00
53262;BME280;39658;51.090;-1.786;2023-07-20T02:47:50;101253.63;;;9.92;100.00
53262;BME280;39658;51.090;-1.786;2023-07-20T02:50:17;101260.00;;;9.88;100.00
53262;BME280;39658;51.090;-1.786;2023-07-20T02:52:43;101263.75;;;9.84;100.00
53262;BME280;39658;51.090;-1.786;2023-07-20T02:55:10;101261.28;;;9.81;100.00
53262;BME280;39658;51.090;-1.786;2023-07-20T02:57:38;101254.56;;;9.75;100.00
53262;BME280;39658;51.090;-1.786;2023-07-20T03:00:06;101264.31;;;9.73;100.00
53262;BME280;39658;51.090;-1.786;2023-07-20T03:02:33;101268.84;;;9.71;100.00
53262;BME280;39658;51.090;-1.786;2023-07-20T03:05:00;101266.44;;;9.66;100.00
53262;BME280;39658;51.090;-1.786;2023-07-20T03:07:31;101265.81;;;9.61;100.00
53262;BME280;39658;51.090;-1.786;2023-07-20T03:09:58;101272.19;;;9.57;100.00
53262;BME280;39658;51.090;-1.786;2023-07-20T03:12:24;101260.88;;;9.55;100.00
53262;BME280;39658;51.090;-1.786;2023-07-20T03:14:52;101256.81;;;9.49;100.00
53262;BME280;39658;51.090;-1.786;2023-07-20T03:17:19;101253.47;;;9.46;100.00
53262;BME280;39658;51.090;-1.786;2023-07-20T03:19:46;101258.28;;;9.38;100.00
53262;BME280;39658;51.090;-1.786;2023-07-20T03:22:13;101261.84;;;9.37;100.00
53262;BME280;39658;51.090;-1.786;2023-07-20T03:24:40;101261.09;;;9.34;100.00
53262;BME280;39658;51.090;-1.786;2023-07-20T03:27:06;101258.63;;;9.31;100.00
53262;BME280;39658;51.090;-1.786;2023-07-20T03:29:33;101266.66;;;9.28;100.00
53262;BME280;39658;51.090;-1.786;2023-07-20T03:32:01;101264.28;;;9.24;100.00
53262;BME280;39658;51.090;-1.786;2023-07-20T03:34:28;101262.81;;;9.18;100.00
53262;BME280;39658;51.090;-1.786;2023-07-20T03:36:55;101265.66;;;9.13;100.00
53262;BME280;39658;51.090;-1.786;2023-07-20T03:39:22;101273.78;;;9.09;100.00
53262;BME280;39658;51.090;-1.786;2023-07-20T03:41:49;101277.44;;;9.06;100.00
53262;BME280;39658;51.090;-1.786;2023-07-20T03:44:15;101264.47;;;9.03;100.00
53262;BME280;39658;51.090;-1.786;2023-07-20T03:46:42;101257.41;;;9.04;100.00
53262;BME280;39658;51.090;-1.786;2023-07-20T03:49:10;101264.53;;;9.02;100.00
53262;BME280;39658;51.090;-1.786;2023-07-20T03:51:37;101259.34;;;9.00;100.00
53262;BME280;39658;51.090;-1.786;2023-07-20T03:54:04;101260.13;;;9.02;100.00
53262;BME280;39658;51.090;-1.786;2023-07-20T03:56:30;101263.63;;;9.03;100.00
53262;BME280;39658;51.090;-1.786;2023-07-20T03:59:00;101265.38;;;9.02;100.00
53262;BME280;39658;51.090;-1.786;2023-07-20T04:01:27;101269.03;;;9.00;100.00
53262;BME280;39658;51.090;-1.786;2023-07-20T04:03:54;101270.88;;;8.97;100.00
53262;BME280;39658;51.090;-1.786;2023-07-20T04:06:22;101268.31;;;8.96;100.00
53262;BME280;39658;51.090;-1.786;2023-07-20T04:08:49;101270.25;;;8.92;100.00
53262;BME280;39658;51.090;-1.786;2023-07-20T04:11:15;101265.16;;;8.89;100.00
53262;BME280;39658;51.090;-1.786;2023-07-20T04:13:42;101275.06;;;8.84;100.00
53262;BME280;39658;51.090;-1.786;2023-07-20T04:16:09;101270.72;;;8.83;100.00
53262;BME280;39658;51.090;-1.786;2023-07-20T04:18:35;101269.81;;;8.84;100.00
53262;BME280;39658;51.090;-1.786;2023-07-20T04:21:02;101262.75;;;8.85;100.00
53262;BME280;39658;51.090;-1.786;2023-07-20T04:23:30;101263.75;;;8.82;100.00
53262;BME280;39658;51.090;-1.786;2023-07-20T04:25:57;101268.31;;;8.78;100.00
53262;BME280;39658;51.090;-1.786;2023-07-20T04:28:24;101264.13;;;8.74;100.00
53262;BME280;39658;51.090;-1.786;2023-07-20T04:30:50;101261.66;;;8.71;100.00
53262;BME280;39658;51.090;-1.786;2023-07-20T04:33:17;101262.53;;;8.72;100.00
53262;BME280;39658;51.090;-1.786;2023-07-20T04:35:48;101265.00;;;8.75;100.00
53262;BME280;39658;51.090;-1.786;2023-07-20T04:38:15;101261.34;;;8.77;100.00
53262;BME280;39658;51.090;-1.786;2023-07-20T04:40:44;101261.41;;;8.76;100.00
53262;BME280;39658;51.090;-1.786;2023-07-20T04:43:11;101258.88;;;8.74;100.00
53262;BME280;39658;51.090;-1.786;2023-07-20T04:45:38;101258.09;;;8.72;100.00
53262;BME280;39658;51.090;-1.786;2023-07-20T04:48:08;101255.47;;;8.72;100.00
53262;BME280;39658;51.090;-1.786;2023-07-20T04:50:35;101255.56;;;8.71;100.00
53262;BME280;39658;51.090;-1.786;2023-07-20T04:53:02;101255.63;;;8.69;100.00
53262;BME280;39658;51.090;-1.786;2023-07-20T04:55:29;101253.75;;;8.71;100.00
53262;BME280;39658;51.090;-1.786;2023-07-20T04:57:57;101251.94;;;8.73;100.00
53262;BME280;39658;51.090;-1.786;2023-07-20T05:00:24;101254.47;;;8.75;100.00
53262;BME280;39658;51.090;-1.786;2023-07-20T05:02:50;101258.72;;;8.77;100.00
53262;BME280;39658;51.090;-1.786;2023-07-20T05:05:17;101253.31;;;8.80;100.00
53262;BME280;39658;51.090;-1.786;2023-07-20T05:07:44;101253.16;;;8.84;100.00
53262;BME280;39658;51.090;-1.786;2023-07-20T05:10:11;101266.06;;;8.88;100.00
53262;BME280;39658;51.090;-1.786;2023-07-20T05:12:37;101262.38;;;8.92;100.00
53262;BME280;39658;51.090;-1.786;2023-07-20T05:15:06;101262.91;;;8.99;100.00
53262;BME280;39658;51.090;-1.786;2023-07-20T05:17:33;101269.63;;;9.05;100.00
53262;BME280;39658;51.090;-1.786;2023-07-20T05:20:00;101267.63;;;9.10;100.00
53262;BME280;39658;51.090;-1.786;2023-07-20T05:22:27;101271.81;;;9.14;100.00
53262;BME280;39658;51.090;-1.786;2023-07-20T05:24:54;101270.47;;;9.23;100.00
53262;BME280;39658;51.090;-1.786;2023-07-20T05:27:20;101276.19;;;9.31;100.00
53262;BME280;39658;51.090;-1.786;2023-07-20T05:29:48;101274.00;;;9.39;100.00
53262;BME280;39658;51.090;-1.786;2023-07-20T05:32:16;101275.25;;;9.49;100.00
53262;BME280;39658;51.090;-1.786;2023-07-20T05:34:41;101277.38;;;9.59;100.00
53262;BME280;39658;51.090;-1.786;2023-07-20T05:37:08;101278.75;;;9.66;100.00
53262;BME280;39658;51.090;-1.786;2023-07-20T05:39:35;101276.56;;;9.74;100.00
53262;BME280;39658;51.090;-1.786;2023-07-20T05:42:02;101266.63;;;9.79;100.00
53262;BME280;39658;51.090;-1.786;2023-07-20T05:44:29;101274.03;;;9.88;100.00
53262;BME280;39658;51.090;-1.786;2023-07-20T05:46:55;101270.03;;;9.97;100.00
53262;BME280;39658;51.090;-1.786;2023-07-20T05:49:24;101273.88;;;10.07;100.00
53262;BME280;39658;51.090;-1.786;2023-07-20T05:51:50;101273.28;;;10.18;100.00
53262;BME280;39658;51.090;-1.786;2023-07-20T05:54:18;101269.13;;;10.30;100.00
53262;BME280;39658;51.090;-1.786;2023-07-20T05:56:46;101273.66;;;10.44;100.00
53262;BME280;39658;51.090;-1.786;2023-07-20T05:59:13;101266.81;;;10.56;100.00
53262;BME280;39658;51.090;-1.786;2023-07-20T06:01:39;101264.22;;;10.70;100.00
53262;BME280;39658;51.090;-1.786;2023-07-20T06:04:06;101269.66;;;10.83;100.00
53262;BME280;39658;51.090;-1.786;2023-07-20T06:06:35;101269.78;;;10.96;100.00
53262;BME280;39658;51.090;-1.786;2023-07-20T06:09:02;101262.06;;;11.07;100.00
53262;BME280;39658;51.090;-1.786;2023-07-20T06:11:30;101262.09;;;11.22;100.00
53262;BME280;39658;51.090;-1.786;2023-07-20T06:13:57;101251.66;;;11.35;100.00
53262;BME280;39658;51.090;-1.786;2023-07-20T06:16:24;101244.09;;;11.43;100.00
53262;BME280;39658;51.090;-1.786;2023-07-20T06:18:50;101236.34;;;11.54;100.00
53262;BME280;39658;51.090;-1.786;2023-07-20T06:21:17;101238.53;;;11.62;100.00
53262;BME280;39658;51.090;-1.786;2023-07-20T06:23:45;101228.34;;;11.70;100.00
53262;BME280;39658;51.090;-1.786;2023-07-20T06:26:12;101219.94;;;11.78;100.00
53262;BME280;39658;51.090;-1.786;2023-07-20T06:28:39;101219.75;;;11.81;100.00
53262;BME280;39658;51.090;-1.786;2023-07-20T06:31:06;101201.59;;;11.89;100.00
53262;BME280;39658;51.090;-1.786;2023-07-20T06:33:33;101197.28;;;12.02;100.00
53262;BME280;39658;51.090;-1.786;2023-07-20T06:36:00;101186.66;;;12.17;100.00
53262;BME280;39658;51.090;-1.786;2023-07-20T06:38:26;101184.03;;;12.30;100.00
53262;BME280;39658;51.090;-1.786;2023-07-20T06:40:55;101181.31;;;12.44;100.00
53262;BME280;39658;51.090;-1.786;2023-07-20T06:43:21;101177.00;;;12.56;100.00
53262;BME280;39658;51.090;-1.786;2023-07-20T06:45:51;101176.09;;;12.70;100.00
53262;BME280;39658;51.090;-1.786;2023-07-20T06:48:18;101163.59;;;12.85;100.00
53262;BME280;39658;51.090;-1.786;2023-07-20T06:50:45;101163.50;;;12.99;100.00
53262;BME280;39658;51.090;-1.786;2023-07-20T06:53:12;101163.28;;;13.15;100.00
53262;BME280;39658;51.090;-1.786;2023-07-20T06:55:39;101167.63;;;13.29;100.00
53262;BME280;39658;51.090;-1.786;2023-07-20T06:58:09;101175.16;;;13.35;100.00
53262;BME280;39658;51.090;-1.786;2023-07-20T07:00:36;101177.81;;;13.35;100.00
53262;BME280;39658;51.090;-1.786;2023-07-20T07:03:03;101183.09;;;13.35;100.00
53262;BME280;39658;51.090;-1.786;2023-07-20T07:05:30;101186.47;;;13.50;100.00
53262;BME280;39658;51.090;-1.786;2023-07-20T07:07:56;101192.59;;;13.63;100.00
53262;BME280;39658;51.090;-1.786;2023-07-20T07:10:23;101208.44;;;13.76;100.00
53262;BME280;39658;51.090;-1.786;2023-07-20T07:12:50;101218.47;;;13.97;100.00
53262;BME280;39658;51.090;-1.786;2023-07-20T07:15:18;101219.78;;;14.15;100.00
53262;BME280;39658;51.090;-1.786;2023-07-20T07:17:45;101237.34;;;14.29;100.00
53262;BME280;39658;51.090;-1.786;2023-07-20T07:20:12;101274.19;;;14.45;100.00
53262;BME280;39658;51.090;-1.786;2023-07-20T07:22:39;101291.97;;;14.56;100.00
53262;BME280;39658;51.090;-1.786;2023-07-20T07:25:09;101330.44;;;14.75;100.00
53262;BME280;39658;51.090;-1.786;2023-07-20T07:27:36;101354.72;;;14.81;100.00
53262;BME280;39658;51.090;-1.786;2023-07-20T07:30:04;101386.34;;;14.84;100.00
53262;BME280;39658;51.090;-1.786;2023-07-20T07:32:33;101424.22;;;14.99;100.00
53262;BME280;39658;51.090;-1.786;2023-07-20T07:34:59;101430.19;;;15.14;100.00
53262;BME280;39658;51.090;-1.786;2023-07-20T07:37:26;101460.56;;;15.23;100.00
53262;BME280;39658;51.090;-1.786;2023-07-20T07:39:53;101474.59;;;15.36;100.00
53262;BME280;39658;51.090;-1.786;2023-07-20T07:42:20;101489.03;;;15.45;100.00
53262;BME280;39658;51.090;-1.786;2023-07-20T07:44:47;101503.34;;;15.55;100.00
53262;BME280;39658;51.090;-1.786;2023-07-20T07:47:14;101488.66;;;15.74;100.00
53262;BME280;39658;51.090;-1.786;2023-07-20T07:49:42;101504.91;;;15.82;100.00
53262;BME280;39658;51.090;-1.786;2023-07-20T07:52:09;101522.34;;;15.97;100.00
53262;BME280;39658;51.090;-1.786;2023-07-20T07:54:36;101526.97;;;16.18;100.00
53262;BME280;39658;51.090;-1.786;2023-07-20T07:57:03;101519.75;;;16.31;100.00
53262;BME280;39658;51.090;-1.786;2023-07-20T07:59:30;101523.66;;;16.50;100.00
53262;BME280;39658;51.090;-1.786;2023-07-20T08:02:02;101518.31;;;16.61;100.00
53262;BME280;39658;51.090;-1.786;2023-07-20T08:04:29;101530.06;;;16.81;100.00
53262;BME280;39658;51.090;-1.786;2023-07-20T08:06:58;101527.03;;;16.97;100.00
53262;BME280;39658;51.090;-1.786;2023-07-20T08:09:25;101521.78;;;17.18;100.00
53262;BME280;39658;51.090;-1.786;2023-07-20T08:11:52;101536.13;;;17.38;100.00
53262;BME280;39658;51.090;-1.786;2023-07-20T08:14:19;101530.91;;;17.48;100.00
53262;BME280;39658;51.090;-1.786;2023-07-20T08:16:46;101519.41;;;17.69;100.00
53262;BME280;39658;51.090;-1.786;2023-07-20T08:19:13;101503.09;;;17.83;100.00
53262;BME280;39658;51.090;-1.786;2023-07-20T08:21:40;101500.56;;;17.82;100.00
53262;BME280;39658;51.090;-1.786;2023-07-20T08:24:08;101454.94;;;17.85;100.00
53262;BME280;39658;51.090;-1.786;2023-07-20T08:26:35;101453.16;;;18.06;100.00
53262;BME280;39658;51.090;-1.786;2023-07-20T08:29:02;101443.41;;;18.26;100.00
53262;BME280;39658;51.090;-1.786;2023-07-20T08:31:29;101434.63;;;18.45;100.00
53262;BME280;39658;51.090;-1.786;2023-07-20T08:33:55;101422.44;;;18.62;100.00
53262;BME280;39658;51.090;-1.786;2023-07-20T08:36:22;101411.81;;;18.82;100.00
53262;BME280;39658;51.090;-1.786;2023-07-20T08:38:49;101400.47;;;19.09;100.00
53262;BME280;39658;51.090;-1.786;2023-07-20T08:41:18;101412.56;;;19.13;100.00
53262;BME280;39658;51.090;-1.786;2023-07-20T08:43:46;101401.84;;;19.43;100.00
53262;BME280;39658;51.090;-1.786;2023-07-20T08:46:13;101438.81;;;19.67;100.00
53262;BME280;39658;51.090;-1.786;2023-07-20T08:48:42;101446.44;;;19.91;100.00
53262;BME280;39658;51.090;-1.786;2023-07-20T08:51:10;101440.78;;;19.94;100.00
53262;BME280;39658;51.090;-1.786;2023-07-20T08:53:38;101468.66;;;20.01;100.00
53262;BME280;39658;51.090;-1.786;2023-07-20T08:56:06;101473.56;;;20.16;100.00
53262;BME280;39658;51.090;-1.786;2023-07-20T08:58:35;101494.59;;;20.38;100.00
53262;BME280;39658;51.090;-1.786;2023-07-20T09:01:03;101494.97;;;20.53;100.00
53262;BME280;39658;51.090;-1.786;2023-07-20T09:03:30;101498.47;;;20.63;100.00
53262;BME280;39658;51.090;-1.786;2023-07-20T09:05:56;101525.38;;;20.72;100.00
53262;BME280;39658;51.090;-1.786;2023-07-20T09:08:23;101532.91;;;20.86;100.00
53262;BME280;39658;51.090;-1.786;2023-07-20T09:10:50;101515.09;;;20.95;100.00
53262;BME280;39658;51.090;-1.786;2023-07-20T09:13:17;101449.34;;;21.01;100.00
53262;BME280;39658;51.090;-1.786;2023-07-20T09:15:53;101100.38;;;21.05;100.00
53262;BME280;39658;51.090;-1.786;2023-07-20T09:18:24;100794.25;;;21.18;100.00
53262;BME280;39658;51.090;-1.786;2023-07-20T09:20:50;100676.28;;;21.18;100.00
53262;BME280;39658;51.090;-1.786;2023-07-20T09:23:17;100594.88;;;21.42;100.00
53262;BME280;39658;51.090;-1.786;2023-07-20T09:25:44;100577.97;;;21.42;100.00
53262;BME280;39658;51.090;-1.786;2023-07-20T09:28:11;100519.25;;;21.55;100.00
53262;BME280;39658;51.090;-1.786;2023-07-20T09:30:38;100487.34;;;21.60;100.00
53262;BME280;39658;51.090;-1.786;2023-07-20T09:33:18;100430.75;;;21.70;100.00
53262;BME280;39658;51.090;-1.786;2023-07-20T09:35:45;100425.81;;;21.97;100.00
53262;BME280;39658;51.090;-1.786;2023-07-20T09:38:14;100407.50;;;22.15;100.00
53262;BME280;39658;51.090;-1.786;2023-07-20T09:40:41;100402.44;;;22.35;100.00
53262;BME280;39658;51.090;-1.786;2023-07-20T09:43:08;100406.41;;;22.54;100.00
53262;BME280;39658;51.090;-1.786;2023-07-20T09:45:35;100443.34;;;22.67;100.00
53262;BME280;39658;51.090;-1.786;2023-07-20T09:48:08;100440.38;;;22.62;100.00
53262;BME280;39658;51.090;-1.786;2023-07-20T09:50:39;100389.19;;;22.85;100.00
53262;BME280;39658;51.090;-1.786;2023-07-20T09:53:10;100397.75;;;23.10;100.00
53262;BME280;39658;51.090;-1.786;2023-07-20T09:55:39;100449.34;;;23.21;100.00
53262;BME280;39658;51.090;-1.786;2023-07-20T09:58:06;100403.34;;;23.30;100.00
53262;BME280;39658;51.090;-1.786;2023-07-20T10:00:36;100386.81;;;23.12;100.00
53262;BME280;39658;51.090;-1.786;2023-07-20T10:03:04;100391.00;;;23.00;100.00
53262;BME280;39658;51.090;-1.786;2023-07-20T10:05:34;100392.47;;;21.76;100.00
53262;BME280;39658;51.090;-1.786;2023-07-20T10:08:03;100388.00;;;21.30;100.00
53262;BME280;39658;51.090;-1.786;2023-07-20T10:10:33;100388.31;;;21.74;100.00
53262;BME280;39658;51.090;-1.786;2023-07-20T10:13:01;100381.75;;;22.51;100.00
53262;BME280;39658;51.090;-1.786;2023-07-20T10:15:32;100392.78;;;22.92;100.00
53262;BME280;39658;51.090;-1.786;2023-07-20T10:18:04;100391.81;;;23.65;100.00
53262;BME280;39658;51.090;-1.786;2023-07-20T10:20:35;100412.19;;;22.73;100.00
53262;BME280;39658;51.090;-1.786;2023-07-20T10:23:04;100402.59;;;21.51;100.00
53262;BME280;39658;51.090;-1.786;2023-07-20T10:25:31;100412.31;;;20.74;100.00
53262;BME280;39658;51.090;-1.786;2023-07-20T10:27:59;100436.28;;;20.59;100.00
53262;BME280;39658;51.090;-1.786;2023-07-20T10:30:26;100425.09;;;20.95;100.00
53262;BME280;39658;51.090;-1.786;2023-07-20T10:32:53;100403.16;;;22.14;100.00
53262;BME280;39658;51.090;-1.786;2023-07-20T10:35:20;100421.19;;;22.80;100.00
53262;BME280;39658;51.090;-1.786;2023-07-20T10:37:53;100420.38;;;23.66;100.00
53262;BME280;39658;51.090;-1.786;2023-07-20T10:40:30;100440.75;;;24.32;100.00
53262;BME280;39658;51.090;-1.786;2023-07-20T10:43:03;100430.16;;;22.87;100.00
53262;BME280;39658;51.090;-1.786;2023-07-20T10:45:48;100403.44;;;22.64;100.00
53262;BME280;39658;51.090;-1.786;2023-07-20T10:48:17;100416.44;;;21.63;100.00
53262;BME280;39658;51.090;-1.786;2023-07-20T10:50:45;100426.00;;;20.79;100.00
53262;BME280;39658;51.090;-1.786;2023-07-20T10:53:15;100444.28;;;20.12;100.00
53262;BME280;39658;51.090;-1.786;2023-07-20T10:55:43;100426.94;;;19.66;100.00
53262;BME280;39658;51.090;-1.786;2023-07-20T10:58:12;100422.63;;;20.86;100.00
53262;BME280;39658;51.090;-1.786;2023-07-20T11:00:55;100388.06;;;22.13;100.00
53262;BME280;39658;51.090;-1.786;2023-07-20T11:03:31;100413.16;;;23.02;100.00
53262;BME280;39658;51.090;-1.786;2023-07-20T11:05:58;100479.84;;;23.28;100.00
53262;BME280;39658;51.090;-1.786;2023-07-20T11:08:40;100404.88;;;23.03;100.00
53262;BME280;39658;51.090;-1.786;2023-07-20T11:11:24;100399.16;;;23.50;100.00
53262;BME280;39658;51.090;-1.786;2023-07-20T11:13:56;100413.75;;;23.62;100.00
53262;BME280;39658;51.090;-1.786;2023-07-20T11:16:34;100414.91;;;23.53;100.00
53262;BME280;39658;51.090;-1.786;2023-07-20T11:19:01;100526.66;;;23.34;100.00
53262;BME280;39658;51.090;-1.786;2023-07-20T11:21:29;100491.22;;;23.88;100.00
53262;BME280;39658;51.090;-1.786;2023-07-20T11:23:57;100456.84;;;24.53;100.00
53262;BME280;39658;51.090;-1.786;2023-07-20T11:26:24;100550.06;;;24.76;100.00
53262;BME280;39658;51.090;-1.786;2023-07-20T11:28:51;100447.81;;;25.30;100.00
53262;BME280;39658;51.090;-1.786;2023-07-20T11:31:18;100448.25;;;25.73;100.00
53262;BME280;39658;51.090;-1.786;2023-07-20T11:33:45;100444.09;;;26.04;100.00
53262;BME280;39658;51.090;-1.786;2023-07-20T11:36:12;100639.63;;;25.41;100.00
53262;BME280;39658;51.090;-1.786;2023-07-20T11:38:41;100499.13;;;25.56;100.00
53262;BME280;39658;51.090;-1.786;2023-07-20T11:41:10;100540.69;;;25.95;100.00
53262;BME280;39658;51.090;-1.786;2023-07-20T11:43:38;100644.09;;;25.76;100.00
53262;BME280;39658;51.090;-1.786;2023-07-20T11:46:05;100589.84;;;25.51;100.00
53262;BME280;39658;51.090;-1.786;2023-07-20T11:48:32;100527.75;;;25.51;100.00
53262;BME280;39658;51.090;-1.786;2023-07-20T11:50:59;100636.97;;;25.06;100.00
53262;BME280;39658;51.090;-1.786;2023-07-20T11:53:26;100648.06;;;24.40;100.00
53262;BME280;39658;51.090;-1.786;2023-07-20T11:55:53;100517.56;;;24.56;100.00
53262;BME280;39658;51.090;-1.786;2023-07-20T11:58:21;100559.38;;;25.15;100.00
53262;BME280;39658;51.090;-1.786;2023-07-20T12:00:49;100505.97;;;25.52;100.00
53262;BME280;39658;51.090;-1.786;2023-07-20T12:03:16;100478.38;;;25.77;100.00
53262;BME280;39658;51.090;-1.786;2023-07-20T12:05:42;100554.22;;;26.02;100.00
53262;BME280;39658;51.090;-1.786;2023-07-20T12:08:09;100488.81;;;25.05;100.00
53262;BME280;39658;51.090;-1.786;2023-07-20T12:10:39;100479.59;;;23.88;100.00
53262;BME280;39658;51.090;-1.786;2023-07-20T12:13:09;100455.38;;;22.86;100.00
53262;BME280;39658;51.090;-1.786;2023-07-20T12:15:38;100375.13;;;22.32;100.00
53262;BME280;39658;51.090;-1.786;2023-07-20T12:18:05;100403.31;;;21.98;100.00
53262;BME280;39658;51.090;-1.786;2023-07-20T12:20:33;100341.97;;;21.80;100.00
53262;BME280;39658;51.090;-1.786;2023-07-20T12:23:02;100356.66;;;22.14;100.00
53262;BME280;39658;51.090;-1.786;2023-07-20T12:25:36;100444.78;;;23.64;100.00
53262;BME280;39658;51.090;-1.786;2023-07-20T12:28:05;100461.09;;;24.76;100.00
53262;BME280;39658;51.090;-1.786;2023-07-20T12:30:31;100490.00;;;25.64;100.00
53262;BME280;39658;51.090;-1.786;2023-07-20T12:33:00;100533.22;;;26.38;100.00
53262;BME280;39658;51.090;-1.786;2023-07-20T12:35:26;100573.91;;;26.63;100.00
53262;BME280;39658;51.090;-1.786;2023-07-20T12:37:53;100549.91;;;27.00;100.00